createdAt,value
2022-11-03T00:03:22.100Z,8.79
2022-11-03T00:08:22.062Z,9.14
2022-11-03T00:13:22.065Z,8.8
2022-11-03T00:18:22.078Z,8.47
2022-11-03T00:23:22.077Z,8.33
2022-11-03T00:28:22.082Z,8.13
2022-11-03T00:33:22.080Z,7.83
2022-11-03T00:38:22.075Z,7.31
2022-11-03T00:43:22.083Z,7.04
2022-11-03T00:48:22.111Z,7.41
2022-11-03T00:53:22.088Z,6.82
2022-11-03T00:58:22.111Z,5.98
2022-11-03T01:03:22.090Z,5.91
2022-11-03T01:08:23.627Z,5.78
2022-11-03T01:13:22.099Z,6.29
2022-11-03T01:18:22.097Z,6.24
2022-11-03T01:23:22.138Z,6.09
2022-11-03T01:28:22.096Z,5.31
2022-11-03T01:33:22.112Z,5.34
2022-11-03T01:38:22.108Z,5.14
2022-11-03T01:43:22.106Z,5.18
2022-11-03T01:48:22.105Z,5.95
2022-11-03T01:53:22.113Z,5.27
2022-11-03T01:58:22.130Z,5.28
2022-11-03T02:03:22.118Z,5.3
2022-11-03T02:08:22.114Z,5.14
2022-11-03T02:18:22.120Z,5.22
2022-11-03T02:23:22.127Z,5.03
2022-11-03T02:28:22.133Z,4.38
2022-11-03T02:33:22.135Z,4.28
2022-11-03T02:38:22.131Z,4.28
2022-11-03T02:43:22.168Z,4.26
2022-11-03T02:48:22.170Z,4.14
2022-11-03T02:53:22.137Z,4.15
2022-11-03T02:58:22.146Z,4.17
2022-11-03T03:03:22.140Z,4.64
2022-11-03T03:08:22.141Z,4.69
2022-11-03T03:13:22.142Z,4.54
2022-11-03T03:18:22.181Z,5.59
2022-11-03T03:23:22.191Z,5.55
2022-11-03T03:28:22.147Z,4.52
2022-11-03T03:33:22.190Z,4.54
2022-11-03T03:38:22.151Z,5.23
2022-11-03T03:43:22.176Z,4.48
2022-11-03T03:48:22.185Z,4.27
2022-11-03T03:53:22.204Z,4.34
2022-11-03T03:58:22.192Z,4.41
2022-11-03T04:03:22.224Z,4.24
2022-11-03T04:08:22.191Z,4.18
2022-11-03T04:13:22.176Z,4.15
2022-11-03T04:18:22.177Z,4.44
2022-11-03T04:23:22.206Z,4.34
2022-11-03T04:28:22.200Z,4.5
2022-11-03T04:33:22.198Z,4.67
2022-11-03T04:38:22.169Z,4.15
2022-11-03T04:43:22.185Z,4.24
2022-11-03T04:48:22.191Z,4.11
2022-11-03T04:53:22.214Z,4.2
2022-11-03T04:58:22.198Z,4.46
2022-11-03T05:03:22.194Z,4.56
2022-11-03T05:08:22.184Z,4.34
2022-11-03T05:13:22.194Z,4.1
2022-11-03T05:18:22.201Z,4.48
2022-11-03T05:23:22.201Z,5.08
2022-11-03T05:28:22.200Z,4.45
2022-11-03T05:33:22.221Z,5.21
2022-11-03T05:38:22.224Z,5.2
2022-11-03T05:43:22.206Z,5.31
2022-11-03T05:48:22.203Z,5.2
2022-11-03T05:53:22.201Z,4.75
2022-11-03T05:58:22.216Z,4.83
2022-11-03T06:03:22.232Z,6.84
2022-11-03T06:08:22.244Z,7.19
2022-11-03T06:13:22.223Z,5.83
2022-11-03T06:18:22.225Z,6.23
2022-11-03T06:23:22.281Z,6.89
2022-11-03T06:28:22.224Z,6.73
2022-11-03T06:33:22.267Z,6.67
2022-11-03T06:38:22.256Z,6.24
2022-11-03T06:43:22.232Z,5.65
2022-11-03T06:48:22.237Z,5.8
2022-11-03T06:53:22.248Z,5.15
2022-11-03T06:58:22.237Z,5.55
2022-11-03T07:03:22.242Z,5.5
2022-11-03T07:08:22.229Z,5.39
2022-11-03T07:13:22.241Z,4.45
2022-11-03T07:18:22.245Z,6.22
2022-11-03T07:23:22.244Z,8.57
2022-11-03T07:28:22.238Z,7.4
2022-11-03T07:33:22.238Z,7.31
2022-11-03T07:38:22.283Z,6.08
2022-11-03T07:43:22.258Z,5.42
2022-11-03T07:48:22.248Z,5.74
2022-11-03T07:53:25.897Z,5.65
2022-11-03T07:58:22.282Z,5.49
2022-11-03T08:03:22.257Z,5.46
2022-11-03T08:08:22.287Z,5.11
2022-11-03T08:13:22.270Z,5.61
2022-11-03T08:18:22.279Z,5.01
2022-11-03T08:23:26.230Z,4.49
2022-11-03T08:28:22.273Z,5.68
2022-11-03T08:33:22.311Z,4.86
2022-11-03T08:38:22.285Z,4.6
2022-11-03T08:43:22.305Z,6.2
2022-11-03T08:48:22.298Z,6.06
2022-11-03T08:53:22.285Z,5.83
2022-11-03T08:58:22.305Z,5.17
2022-11-03T09:03:22.358Z,4.95
2022-11-03T09:13:22.298Z,4.05
2022-11-03T09:18:22.295Z,4.4
2022-11-03T09:23:22.299Z,4.16
2022-11-03T09:28:22.313Z,4.67
2022-11-03T09:33:22.298Z,3.8
2022-11-03T09:38:22.320Z,3.83
2022-11-03T09:43:22.302Z,4.18
2022-11-03T09:48:22.314Z,7.96
2022-11-03T09:53:22.325Z,3.35
2022-11-03T09:58:22.345Z,3.17
2022-11-03T10:03:22.349Z,3.19
2022-11-03T10:08:22.632Z,3.19
2022-11-03T10:13:22.314Z,2.58
2022-11-03T10:18:22.331Z,1.9
2022-11-03T10:23:22.329Z,4.12
2022-11-03T10:28:22.317Z,5.31
2022-11-03T10:33:22.337Z,3.22
2022-11-03T10:38:22.355Z,2.2
2022-11-03T10:43:22.335Z,2.02
2022-11-03T10:48:22.333Z,1.82
2022-11-03T10:53:22.436Z,2.28
2022-11-03T10:58:22.378Z,2.98
2022-11-03T11:03:22.378Z,4.54
2022-11-03T11:08:22.452Z,2.57
2022-11-03T11:13:22.381Z,1.59
2022-11-03T11:18:22.382Z,1.44
2022-11-03T11:23:22.360Z,2.5
2022-11-03T11:28:22.360Z,2.29
2022-11-03T11:33:22.355Z,2.49
2022-11-03T11:38:22.350Z,2.42
2022-11-03T11:43:22.370Z,1.74
2022-11-03T11:48:22.409Z,1.44
2022-11-03T11:53:25.032Z,1.48
2022-11-03T11:58:22.373Z,1.83
2022-11-03T12:03:22.455Z,1.62
2022-11-03T12:08:22.370Z,1.3
2022-11-03T12:13:22.384Z,1.38
2022-11-03T12:18:22.384Z,2.04
2022-11-03T12:23:22.421Z,1.63
2022-11-03T12:28:22.415Z,1.64
2022-11-03T12:33:22.395Z,2
2022-11-03T12:38:22.409Z,1.8
2022-11-03T12:43:22.421Z,1.72
2022-11-03T12:48:22.423Z,2.13
2022-11-03T12:53:22.404Z,1.89
2022-11-03T12:58:22.439Z,1.36
2022-11-03T13:03:22.437Z,1.7
2022-11-03T13:08:22.440Z,1.84
2022-11-03T13:13:22.440Z,4.92
2022-11-03T13:18:22.419Z,7.67
2022-11-03T13:23:23.171Z,4.2
2022-11-03T13:28:22.459Z,1.86
2022-11-03T13:33:22.455Z,2.36
2022-11-03T13:38:22.417Z,1.56
2022-11-03T13:43:22.425Z,1.72
2022-11-03T13:49:09.051Z,1.92
2022-11-03T14:08:22.440Z,1.64
2022-11-03T14:13:22.470Z,1.6
2022-11-03T14:18:22.477Z,1.67
2022-11-03T14:23:22.451Z,1.73
2022-11-03T14:28:25.994Z,1.72
2022-11-03T14:33:22.445Z,1.87
2022-11-03T14:38:22.460Z,2.06
2022-11-03T14:43:22.458Z,2.26
2022-11-03T14:48:22.456Z,2.52
2022-11-03T14:53:22.467Z,2.56
2022-11-03T14:58:22.474Z,2.69
2022-11-03T15:03:22.465Z,3.13
2022-11-03T15:08:22.473Z,3.04
2022-11-03T15:13:22.478Z,3.43
2022-11-03T15:18:22.522Z,3.59
2022-11-03T15:28:22.484Z,3.17
2022-11-03T15:33:22.493Z,3.11
2022-11-03T15:38:22.489Z,3.44
2022-11-03T15:43:22.489Z,3.91
2022-11-03T15:48:22.481Z,3.56
2022-11-03T15:53:22.497Z,3.84
2022-11-03T15:58:22.500Z,5.35
2022-11-03T16:03:22.524Z,4.99
2022-11-03T16:08:22.539Z,4.67
2022-11-03T16:13:23.267Z,6.07
2022-11-03T16:18:22.528Z,11.83
2022-11-03T16:23:22.506Z,16.9
2022-11-03T16:28:22.507Z,13.8
2022-11-03T16:33:22.533Z,15.85
2022-11-03T16:38:22.524Z,15.1
2022-11-03T16:43:22.534Z,18.54
2022-11-03T16:48:22.515Z,20.76
2022-11-03T16:53:22.512Z,18.07
2022-11-03T16:58:22.530Z,48.32
2022-11-03T17:03:22.524Z,39.49
2022-11-03T17:13:22.534Z,22.96
2022-11-03T17:18:22.557Z,17.55
2022-11-03T17:23:22.561Z,18.82
2022-11-03T17:28:22.581Z,13.61
2022-11-03T17:33:22.520Z,14.88
2022-11-03T17:38:22.526Z,16.02
2022-11-03T17:43:22.574Z,14.65
2022-11-03T17:48:22.534Z,14.25
2022-11-03T17:53:22.585Z,16.67
2022-11-03T17:58:22.598Z,19.65
2022-11-03T18:03:22.537Z,20.86
2022-11-03T18:08:22.549Z,19.66
2022-11-03T18:13:22.577Z,17.78
2022-11-03T18:18:22.554Z,19.59
2022-11-03T18:23:22.579Z,19.31
2022-11-03T18:28:22.571Z,19.11
2022-11-03T18:33:22.573Z,17.49
2022-11-03T18:38:22.556Z,16.82
2022-11-03T18:43:22.559Z,20.31
2022-11-03T18:48:22.553Z,23.16
2022-11-03T18:53:22.550Z,35.46
2022-11-03T18:58:22.592Z,36.1
2022-11-03T19:03:22.561Z,26.56
2022-11-03T19:08:22.602Z,25.11
2022-11-03T19:13:22.567Z,17.88
2022-11-03T19:18:22.569Z,15.25
2022-11-03T19:23:22.582Z,13.36
2022-11-03T19:28:22.563Z,11.61
2022-11-03T19:33:22.579Z,11.18
2022-11-03T19:38:22.604Z,10.62
2022-11-03T19:43:22.582Z,10.86
2022-11-03T19:48:24.752Z,12.18
2022-11-03T19:53:22.608Z,11.81
2022-11-03T19:58:22.617Z,11.71
2022-11-03T20:03:22.590Z,12.26
2022-11-03T20:08:22.594Z,12.72
2022-11-03T20:13:22.608Z,11.94
2022-11-03T20:18:22.594Z,11.46
2022-11-03T20:23:22.592Z,11.94
2022-11-03T20:28:22.597Z,11.45
2022-11-03T20:33:22.597Z,11.42
2022-11-03T20:38:22.607Z,10.06
2022-11-03T20:43:22.595Z,10.74
2022-11-03T20:48:22.606Z,11.17
2022-11-03T20:53:22.630Z,11.27
2022-11-03T20:58:22.603Z,16.18
2022-11-03T21:03:37.476Z,20.84
2022-11-03T21:08:22.609Z,18.11
2022-11-03T21:13:22.611Z,14.53
2022-11-03T21:18:22.629Z,13.51
2022-11-03T21:23:22.620Z,14.21
2022-11-03T21:28:22.654Z,14.23
2022-11-03T21:33:22.613Z,19.16
2022-11-03T21:38:22.618Z,14.97
2022-11-03T21:43:22.617Z,13.23
2022-11-03T21:48:23.015Z,12.94
2022-11-03T21:53:22.628Z,14.03
2022-11-03T21:58:22.628Z,12.17
2022-11-03T22:03:22.653Z,11.85
2022-11-03T22:13:22.631Z,20.22
2022-11-03T22:18:22.663Z,18.81
2022-11-03T22:23:22.634Z,18.51
2022-11-03T22:28:22.644Z,18.91
2022-11-03T22:33:22.660Z,18.99
2022-11-03T22:38:22.637Z,17.09
2022-11-03T22:43:22.644Z,14.32
2022-11-03T22:48:22.644Z,9.93
2022-11-03T22:53:22.684Z,10.49
2022-11-03T22:58:24.323Z,16.66
2022-11-03T23:03:22.683Z,20.87
2022-11-03T23:08:22.726Z,18.65
2022-11-03T23:13:22.654Z,17.27
2022-11-03T23:18:22.687Z,16.66
2022-11-03T23:23:22.661Z,15.02
2022-11-03T23:28:22.687Z,14.56
2022-11-03T23:33:22.694Z,12.62
2022-11-03T23:38:22.655Z,11.51
2022-11-03T23:43:22.667Z,11.74
2022-11-03T23:48:22.668Z,10.07
2022-11-03T23:53:22.666Z,9.38
2022-11-03T23:58:22.703Z,8.78
